Time;durP1;ratioP1;P1;durP2;ratioP2;P2;SDS_P1;SDS_P2;PMS_P1;PMS_P2;Temp;Humidity;BMP_temperature;BMP_pressure;BME280_temperature;BME280_humidity;BME280_pressure;Samples;Min_cycle;Max_cycle;Signal;HPM_P1;HPM_P2
2021/08/23 00:00:17;;;;;;;19.38;10.70;;;;;;;;;;5091415;28;20086;-45
2021/08/23 00:02:43;;;;;;;19.60;11.63;;;;;;;;;;5091447;28;20024;-47
2021/08/23 00:05:09;;;;;;;20.77;11.18;;;;;;;;;;5103093;28;20028;-46
2021/08/23 00:07:35;;;;;;;18.10;10.77;;;;;;;;;;5075530;28;20372;-47
2021/08/23 00:10:01;;;;;;;21.38;11.73;;;;;;;;;;5111533;28;20035;-47
2021/08/23 00:12:29;;;;;;;19.23;11.57;;;;;;;;;;5106697;28;20024;-47
2021/08/23 00:14:55;;;;;;;19.20;10.98;;;;;;;;;;5091112;28;20024;-47
2021/08/23 00:17:21;;;;;;;17.73;11.18;;;;;;;;;;5090988;28;20102;-46
2021/08/23 00:19:47;;;;;;;17.33;11.18;;;;;;;;;;5072803;28;20028;-47
2021/08/23 00:22:29;;;;;;;18.95;11.93;;;;;;;;;;5073045;28;20063;-50
2021/08/23 00:24:56;;;;;;;20.17;11.77;;;;;;;;;;5091519;28;21714;-46
2021/08/23 00:27:22;;;;;;;23.02;11.43;;;;;;;;;;5105947;28;20498;-46
2021/08/23 00:29:48;;;;;;;25.77;13.88;;;;;;;;;;5115166;28;20023;-46
2021/08/23 00:32:16;;;;;;;30.23;15.80;;;;;;;;;;5114904;28;20046;-45
2021/08/23 00:34:42;;;;;;;28.95;16.95;;;;;;;;;;5101862;28;20032;-47
2021/08/23 00:37:08;;;;;;;28.35;16.42;;;;;;;;;;5094707;28;20112;-47
2021/08/23 00:39:35;;;;;;;27.08;17.10;;;;;;;;;;5094566;28;20028;-45
2021/08/23 00:42:02;;;;;;;35.90;19.60;;;;;;;;;;5094386;28;20028;-49
2021/08/23 00:44:28;;;;;;;30.95;19.02;;;;;;;;;;5094430;28;20024;-48
2021/08/23 00:46:55;;;;;;;29.67;18.00;;;;;;;;;;5094387;28;20027;-49
2021/08/23 00:49:21;;;;;;;35.63;20.38;;;;;;;;;;5094331;28;20027;-46
2021/08/23 00:51:47;;;;;;;36.63;20.92;;;;;;;;;;5094347;28;20028;-45
2021/08/23 00:54:13;;;;;;;35.17;21.05;;;;;;;;;;5094317;28;20035;-47
2021/08/23 00:56:39;;;;;;;37.83;21.83;;;;;;;;;;5099910;28;20024;-50
2021/08/23 00:59:08;;;;;;;39.28;21.45;;;;;;;;;;5094090;28;20027;-47
2021/08/23 01:01:42;;;;;;;38.95;23.00;;;;;;;;;;5094281;28;20384;-46
2021/08/23 01:04:15;;;;;;;38.08;22.95;;;;;;;;;;5094326;28;20020;-52
2021/08/23 01:06:42;;;;;;;36.63;21.75;;;;;;;;;;5094052;28;20031;-50
2021/08/23 01:09:11;;;;;;;37.60;22.95;;;;;;;;;;5093962;28;20393;-46
2021/08/23 01:11:41;;;;;;;41.22;23.17;;;;;;;;;;5093910;28;20389;-47
2021/08/23 01:14:08;;;;;;;42.22;25.02;;;;;;;;;;5110296;28;20024;-46
2021/08/23 01:16:34;;;;;;;49.95;28.42;;;;;;;;;;5114149;28;20020;-48
2021/08/23 01:19:00;;;;;;;47.67;27.48;;;;;;;;;;5095599;28;20053;-46
2021/08/23 01:21:28;;;;;;;44.10;26.02;;;;;;;;;;5095895;28;20464;-49
2021/08/23 01:23:56;;;;;;;56.97;29.58;;;;;;;;;;5113974;28;20102;-49
2021/08/23 01:26:27;;;;;;;50.80;27.58;;;;;;;;;;5114017;28;20102;-50
2021/08/23 01:28:59;;;;;;;44.20;25.65;;;;;;;;;;5113923;28;20015;-47
2021/08/23 01:31:41;;;;;;;45.70;26.45;;;;;;;;;;5095966;28;20082;-50
2021/08/23 01:34:08;;;;;;;46.45;25.30;;;;;;;;;;5113750;28;20028;-46
2021/08/23 01:36:35;;;;;;;37.20;22.20;;;;;;;;;;5113752;28;20030;-49
2021/08/23 01:39:01;;;;;;;35.53;20.88;;;;;;;;;;5113497;28;20072;-45
2021/08/23 01:41:27;;;;;;;30.80;19.45;;;;;;;;;;5113712;28;20107;-48
2021/08/23 01:43:53;;;;;;;32.22;18.15;;;;;;;;;;5113724;28;20027;-48
2021/08/23 01:46:19;;;;;;;31.35;17.90;;;;;;;;;;5113518;28;20024;-45
2021/08/23 01:48:46;;;;;;;26.83;16.52;;;;;;;;;;5110679;28;20019;-47
2021/08/23 01:51:12;;;;;;;30.88;16.23;;;;;;;;;;5093314;28;20448;-45
2021/08/23 01:53:38;;;;;;;24.75;15.38;;;;;;;;;;5093112;28;20473;-46
2021/08/23 01:56:05;;;;;;;25.58;14.07;;;;;;;;;;5093170;28;20094;-45
2021/08/23 01:58:31;;;;;;;24.40;14.10;;;;;;;;;;5093105;28;20063;-45
2021/08/23 02:00:57;;;;;;;27.90;14.75;;;;;;;;;;5092939;28;20024;-46
2021/08/23 02:03:23;;;;;;;24.48;14.00;;;;;;;;;;5092989;28;20028;-47
2021/08/23 02:05:49;;;;;;;25.95;15.40;;;;;;;;;;5074828;28;20020;-49
2021/08/23 02:08:15;;;;;;;24.25;13.75;;;;;;;;;;5092896;28;20031;-48
2021/08/23 02:10:41;;;;;;;22.60;14.27;;;;;;;;;;5092775;28;20100;-48
2021/08/23 02:13:08;;;;;;;23.08;13.35;;;;;;;;;;5092788;28;20055;-46
2021/08/23 02:15:34;;;;;;;24.02;13.27;;;;;;;;;;5092562;28;20023;-45
2021/08/23 02:18:00;;;;;;;20.20;12.93;;;;;;;;;;5092586;28;20048;-46
2021/08/23 02:20:26;;;;;;;26.50;14.13;;;;;;;;;;5092902;28;20035;-46
2021/08/23 02:22:52;;;;;;;26.42;14.70;;;;;;;;;;5092744;28;20016;-46
2021/08/23 02:25:23;;;;;;;19.48;12.57;;;;;;;;;;5092486;28;20020;-47
2021/08/23 02:27:50;;;;;;;26.92;12.82;;;;;;;;;;5092228;28;20043;-49
2021/08/23 02:30:16;;;;;;;24.70;12.45;;;;;;;;;;5092334;28;20023;-46
2021/08/23 02:32:42;;;;;;;18.25;12.07;;;;;;;;;;5092453;28;20031;-47
2021/08/23 02:35:08;;;;;;;17.23;11.45;;;;;;;;;;5092437;28;20498;-47
2021/08/23 02:37:34;;;;;;;20.30;11.32;;;;;;;;;;5092226;28;20077;-47
2021/08/23 02:40:00;;;;;;;21.38;11.20;;;;;;;;;;5092152;28;20473;-48
2021/08/23 02:42:26;;;;;;;20.10;10.40;;;;;;;;;;5073740;28;20400;-47
2021/08/23 02:44:52;;;;;;;16.30;9.98;;;;;;;;;;5091887;28;20024;-50
2021/08/23 02:47:18;;;;;;;18.25;10.20;;;;;;;;;;5091836;28;20020;-48
2021/08/23 02:49:44;;;;;;;20.50;10.60;;;;;;;;;;5091933;28;20028;-48
2021/08/23 02:52:10;;;;;;;16.20;10.18;;;;;;;;;;5091382;28;20077;-49
2021/08/23 02:54:36;;;;;;;17.63;10.60;;;;;;;;;;5091884;28;20078;-46
2021/08/23 02:57:02;;;;;;;19.55;9.80;;;;;;;;;;5091885;28;20465;-47
2021/08/23 02:59:28;;;;;;;19.27;10.27;;;;;;;;;;5091725;28;20024;-47
2021/08/23 03:01:54;;;;;;;16.27;9.43;;;;;;;;;;5091839;28;20031;-48
2021/08/23 03:04:20;;;;;;;17.95;9.52;;;;;;;;;;5073657;28;20082;-48
2021/08/23 03:06:46;;;;;;;18.90;11.13;;;;;;;;;;5091746;28;20027;-46
2021/08/23 03:09:13;;;;;;;15.60;10.80;;;;;;;;;;5091689;28;20047;-46
2021/08/23 03:11:39;;;;;;;21.17;12.98;;;;;;;;;;5091872;28;20024;-47
2021/08/23 03:14:05;;;;;;;19.55;11.98;;;;;;;;;;5091654;28;20024;-46
2021/08/23 03:16:31;;;;;;;19.90;11.45;;;;;;;;;;5091583;28;20028;-47
2021/08/23 03:18:57;;;;;;;17.38;10.68;;;;;;;;;;5091358;28;20051;-46
2021/08/23 03:21:23;;;;;;;17.98;10.32;;;;;;;;;;5094123;28;20023;-46
2021/08/23 03:23:49;;;;;;;17.25;10.95;;;;;;;;;;5100800;28;20024;-46
2021/08/23 03:26:15;;;;;;;19.58;12.40;;;;;;;;;;5091639;28;20024;-45
2021/08/23 03:28:41;;;;;;;18.08;11.38;;;;;;;;;;5091782;28;20024;-48
2021/08/23 03:31:07;;;;;;;18.73;12.18;;;;;;;;;;5091894;28;20024;-45
2021/08/23 03:33:34;;;;;;;18.38;11.80;;;;;;;;;;5091669;28;20031;-45
2021/08/23 03:36:01;;;;;;;21.25;11.32;;;;;;;;;;5091690;28;20029;-45
2021/08/23 03:38:27;;;;;;;19.10;10.43;;;;;;;;;;5091410;28;20016;-45
2021/08/23 03:40:53;;;;;;;16.55;11.15;;;;;;;;;;5073134;28;20035;-46
2021/08/23 03:43:19;;;;;;;15.10;10.10;;;;;;;;;;5091498;28;20021;-47
2021/08/23 03:45:45;;;;;;;18.63;9.88;;;;;;;;;;5091625;28;20023;-47
2021/08/23 03:48:11;;;;;;;19.02;10.13;;;;;;;;;;5091403;28;20028;-49
2021/08/23 03:50:37;;;;;;;15.35;10.25;;;;;;;;;;5073405;28;20129;-51
2021/08/23 03:53:03;;;;;;;16.50;10.23;;;;;;;;;;5091283;28;20468;-47
2021/08/23 03:55:29;;;;;;;19.90;9.98;;;;;;;;;;5091564;28;20028;-45
2021/08/23 03:57:55;;;;;;;18.15;11.15;;;;;;;;;;5091528;28;20024;-45
2021/08/23 04:00:21;;;;;;;15.40;10.10;;;;;;;;;;5091383;28;20396;-45
2021/08/23 04:02:47;;;;;;;17.52;11.50;;;;;;;;;;5091760;28;20016;-47
2021/08/23 04:05:13;;;;;;;20.88;11.77;;;;;;;;;;5095201;28;20476;-46
2021/08/23 04:07:39;;;;;;;16.25;10.77;;;;;;;;;;5095175;28;20533;-46
2021/08/23 04:10:06;;;;;;;16.38;10.50;;;;;;;;;;5095150;28;20020;-46
2021/08/23 04:12:32;;;;;;;15.13;10.30;;;;;;;;;;5095011;28;20024;-46
2021/08/23 04:15:00;;;;;;;21.67;9.93;;;;;;;;;;5076887;28;20449;-46
2021/08/23 04:17:26;;;;;;;14.07;9.25;;;;;;;;;;5094542;28;20140;-49
2021/08/23 04:19:52;;;;;;;22.63;9.65;;;;;;;;;;5093044;28;20564;-47
2021/08/23 04:22:18;;;;;;;16.15;9.57;;;;;;;;;;5093644;28;20120;-46
2021/08/23 04:24:44;;;;;;;12.50;9.38;;;;;;;;;;5094850;28;20048;-49
2021/08/23 04:27:10;;;;;;;17.90;9.75;;;;;;;;;;5094836;28;20012;-47
2021/08/23 04:29:36;;;;;;;16.85;10.35;;;;;;;;;;5094767;28;20078;-50
2021/08/23 04:32:02;;;;;;;14.27;9.50;;;;;;;;;;5094817;28;20437;-49
2021/08/23 04:34:28;;;;;;;18.65;10.23;;;;;;;;;;5094969;28;20028;-45
2021/08/23 04:36:54;;;;;;;15.63;9.35;;;;;;;;;;5076737;28;20028;-46
2021/08/23 04:39:21;;;;;;;18.83;9.95;;;;;;;;;;5102266;28;20106;-46
2021/08/23 04:41:47;;;;;;;16.17;10.25;;;;;;;;;;5098010;28;20157;-46
2021/08/23 04:44:13;;;;;;;17.50;9.90;;;;;;;;;;5108278;28;20065;-47
2021/08/23 04:46:39;;;;;;;17.77;10.07;;;;;;;;;;5097298;28;20024;-48
2021/08/23 04:49:05;;;;;;;17.75;9.77;;;;;;;;;;5094497;28;20107;-47
2021/08/23 04:51:31;;;;;;;14.50;10.35;;;;;;;;;;5094402;28;20028;-47
2021/08/23 04:53:57;;;;;;;15.90;10.13;;;;;;;;;;5094130;28;20070;-47
2021/08/23 04:56:23;;;;;;;14.63;9.95;;;;;;;;;;5102059;28;20028;-47
2021/08/23 04:58:52;;;;;;;19.85;10.50;;;;;;;;;;5100958;28;20024;-46
2021/08/23 05:01:18;;;;;;;18.80;10.27;;;;;;;;;;5094173;28;20032;-47
2021/08/23 05:03:44;;;;;;;13.02;9.25;;;;;;;;;;5094169;28;20077;-47
2021/08/23 05:06:10;;;;;;;15.60;10.50;;;;;;;;;;5094110;28;20062;-47
2021/08/23 05:08:36;;;;;;;17.17;10.98;;;;;;;;;;5093936;28;20028;-46
2021/08/23 05:11:02;;;;;;;15.55;10.88;;;;;;;;;;5075881;28;20032;-46
2021/08/23 05:13:28;;;;;;;15.13;10.07;;;;;;;;;;5093224;28;20533;-47
2021/08/23 05:15:54;;;;;;;17.63;10.75;;;;;;;;;;5093757;28;20051;-49
2021/08/23 05:18:20;;;;;;;14.45;10.05;;;;;;;;;;5093820;28;20102;-50
2021/08/23 05:20:46;;;;;;;15.73;9.80;;;;;;;;;;5093582;28;20123;-50
2021/08/23 05:23:12;;;;;;;12.20;9.05;;;;;;;;;;5093689;28;20058;-46
2021/08/23 05:25:38;;;;;;;18.13;9.27;;;;;;;;;;5093605;28;20469;-46
2021/08/23 05:28:04;;;;;;;15.20;9.32;;;;;;;;;;5093742;28;20016;-47
2021/08/23 05:30:31;;;;;;;15.52;8.90;;;;;;;;;;5093704;28;20020;-46
2021/08/23 05:32:57;;;;;;;15.90;9.23;;;;;;;;;;5093517;28;20095;-46
2021/08/23 05:35:23;;;;;;;15.10;8.95;;;;;;;;;;5093754;28;20024;-46
2021/08/23 05:37:49;;;;;;;22.58;11.35;;;;;;;;;;5093582;28;20758;-47
2021/08/23 05:40:16;;;;;;;20.00;11.32;;;;;;;;;;5093416;28;20028;-49
2021/08/23 05:42:42;;;;;;;23.35;11.68;;;;;;;;;;5075366;28;20024;-48
2021/08/23 05:45:09;;;;;;;22.25;12.43;;;;;;;;;;5093157;28;20078;-47
2021/08/23 05:47:36;;;;;;;23.90;12.57;;;;;;;;;;5093250;28;20019;-47
2021/08/23 05:50:02;;;;;;;23.40;14.00;;;;;;;;;;5095846;28;20034;-47
2021/08/23 05:52:28;;;;;;;26.30;13.68;;;;;;;;;;5083973;28;20032;-50
2021/08/23 05:54:54;;;;;;;26.40;14.52;;;;;;;;;;5093080;28;20020;-46
2021/08/23 05:57:22;;;;;;;26.17;13.68;;;;;;;;;;5093150;28;20043;-50
2021/08/23 05:59:48;;;;;;;19.75;11.95;;;;;;;;;;5092849;28;20495;-46
2021/08/23 06:02:14;;;;;;;19.23;10.80;;;;;;;;;;5093000;28;20020;-50
2021/08/23 06:04:40;;;;;;;14.35;8.68;;;;;;;;;;5092948;28;20023;-48
2021/08/23 06:07:07;;;;;;;16.63;8.48;;;;;;;;;;5092931;28;20016;-50
2021/08/23 06:09:34;;;;;;;17.23;8.75;;;;;;;;;;5092213;28;20024;-49
2021/08/23 06:12:00;;;;;;;13.20;8.70;;;;;;;;;;5101435;28;20024;-46
2021/08/23 06:14:26;;;;;;;13.77;8.50;;;;;;;;;;5091588;28;20024;-49
2021/08/23 06:16:52;;;;;;;10.30;8.27;;;;;;;;;;5107350;28;20059;-47
2021/08/23 06:19:18;;;;;;;13.95;7.80;;;;;;;;;;5113399;28;20039;-50
2021/08/23 06:21:44;;;;;;;11.68;7.63;;;;;;;;;;5113223;28;20024;-50
2021/08/23 06:24:10;;;;;;;13.18;7.00;;;;;;;;;;5113156;28;20019;-50
2021/08/23 06:26:36;;;;;;;12.77;7.50;;;;;;;;;;5112170;28;20019;-48
2021/08/23 06:29:02;;;;;;;11.57;6.45;;;;;;;;;;5088274;28;20487;-52
2021/08/23 06:31:30;;;;;;;11.32;6.75;;;;;;;;;;5112311;28;20102;-46
2021/08/23 06:33:56;;;;;;;15.32;7.47;;;;;;;;;;5094317;28;20058;-50
2021/08/23 06:36:22;;;;;;;15.35;6.97;;;;;;;;;;5096547;28;20028;-46
2021/08/23 06:38:48;;;;;;;15.55;8.55;;;;;;;;;;5111221;28;20373;-46
2021/08/23 06:41:21;;;;;;;13.90;8.38;;;;;;;;;;5088324;28;20110;-47
2021/08/23 06:43:47;;;;;;;9.30;7.05;;;;;;;;;;5097081;28;20480;-48
2021/08/23 06:46:13;;;;;;;11.70;7.05;;;;;;;;;;5092171;28;20480;-47
2021/08/23 06:48:39;;;;;;;9.77;6.07;;;;;;;;;;5097682;28;20481;-46
2021/08/23 06:51:06;;;;;;;9.82;5.72;;;;;;;;;;5105541;28;20392;-51
2021/08/23 06:53:32;;;;;;;15.38;7.75;;;;;;;;;;5090785;28;20032;-47
2021/08/23 06:55:58;;;;;;;9.65;7.53;;;;;;;;;;5091933;28;20035;-48
2021/08/23 06:58:24;;;;;;;9.02;7.03;;;;;;;;;;5093206;28;20048;-49
2021/08/23 07:00:50;;;;;;;11.60;7.05;;;;;;;;;;5100714;28;20036;-49
2021/08/23 07:03:16;;;;;;;8.13;6.20;;;;;;;;;;5095104;28;20106;-46
2021/08/23 07:05:42;;;;;;;9.52;5.90;;;;;;;;;;5111852;28;20027;-47
2021/08/23 07:08:08;;;;;;;9.85;7.10;;;;;;;;;;5093709;28;20016;-47
2021/08/23 07:10:34;;;;;;;11.38;7.35;;;;;;;;;;5112001;28;20131;-50
2021/08/23 07:13:01;;;;;;;8.50;6.78;;;;;;;;;;5111624;28;20019;-49
2021/08/23 07:15:27;;;;;;;12.02;7.55;;;;;;;;;;5111529;28;20020;-46
2021/08/23 07:17:53;;;;;;;17.60;8.35;;;;;;;;;;5105702;28;20052;-51
2021/08/23 07:20:19;;;;;;;18.02;9.25;;;;;;;;;;5080728;28;20034;-49
2021/08/23 07:22:45;;;;;;;41.22;11.88;;;;;;;;;;5098631;28;20027;-49
2021/08/23 07:25:11;;;;;;;47.85;10.63;;;;;;;;;;5091974;28;20308;-50
2021/08/23 07:27:37;;;;;;;35.42;9.15;;;;;;;;;;5097196;28;20027;-47
2021/08/23 07:30:04;;;;;;;14.80;6.38;;;;;;;;;;5101655;28;20031;-47
2021/08/23 07:32:31;;;;;;;12.48;6.30;;;;;;;;;;5102244;28;20480;-51
2021/08/23 07:34:57;;;;;;;13.25;6.47;;;;;;;;;;5098405;28;20024;-50
2021/08/23 07:37:23;;;;;;;10.98;5.07;;;;;;;;;;5102562;28;20412;-49
2021/08/23 07:39:49;;;;;;;8.60;5.55;;;;;;;;;;5089516;28;20031;-49
2021/08/23 07:42:15;;;;;;;9.70;4.88;;;;;;;;;;5101698;28;20012;-47
2021/08/23 07:44:41;;;;;;;5.93;3.90;;;;;;;;;;5105584;28;20020;-48
2021/08/23 07:47:08;;;;;;;4.78;3.72;;;;;;;;;;5104648;28;20016;-50
2021/08/23 07:49:34;;;;;;;5.78;4.15;;;;;;;;;;5104788;28;20024;-45
2021/08/23 07:52:00;;;;;;;7.57;4.47;;;;;;;;;;5101438;28;20024;-47
2021/08/23 07:54:26;;;;;;;37.63;8.07;;;;;;;;;;5105992;28;20016;-45
2021/08/23 07:56:53;;;;;;;13.75;4.50;;;;;;;;;;5107054;28;20145;-44
2021/08/23 07:59:19;;;;;;;6.75;5.35;;;;;;;;;;5105077;28;20028;-43
2021/08/23 08:01:45;;;;;;;7.63;4.82;;;;;;;;;;5108165;28;20410;-43
2021/08/23 08:04:12;;;;;;;15.77;5.78;;;;;;;;;;5095139;28;20481;-43
2021/08/23 08:06:38;;;;;;;7.05;5.40;;;;;;;;;;5095115;28;20057;-43
2021/08/23 08:09:04;;;;;;;32.47;6.63;;;;;;;;;;5062752;28;20027;-42
2021/08/23 08:11:30;;;;;;;25.20;6.13;;;;;;;;;;5074784;28;20017;-44
2021/08/23 08:13:56;;;;;;;9.38;4.75;;;;;;;;;;5074730;28;20052;-42
2021/08/23 08:16:22;;;;;;;36.85;8.20;;;;;;;;;;5095963;28;20126;-43
2021/08/23 08:18:48;;;;;;;17.98;5.88;;;;;;;;;;5101356;28;20063;-43
2021/08/23 08:21:15;;;;;;;9.38;4.90;;;;;;;;;;5098230;28;20024;-43
2021/08/23 08:23:41;;;;;;;9.80;4.32;;;;;;;;;;5097631;28;20023;-43
2021/08/23 08:26:07;;;;;;;9.43;4.82;;;;;;;;;;5100929;28;20066;-44
2021/08/23 08:28:33;;;;;;;19.52;6.53;;;;;;;;;;5101325;28;20031;-43
2021/08/23 08:30:59;;;;;;;14.93;5.50;;;;;;;;;;5106640;28;20020;-42
2021/08/23 08:33:25;;;;;;;31.13;7.75;;;;;;;;;;5103252;28;20028;-42
2021/08/23 08:35:57;;;;;;;24.95;6.95;;;;;;;;;;5107140;28;20403;-43
2021/08/23 08:38:24;;;;;;;9.65;5.07;;;;;;;;;;5106557;28;20020;-44
2021/08/23 08:40:50;;;;;;;5.88;4.20;;;;;;;;;;5107062;28;20529;-44
2021/08/23 08:43:16;;;;;;;28.52;6.35;;;;;;;;;;5106939;28;20034;-44
2021/08/23 08:45:43;;;;;;;25.42;6.75;;;;;;;;;;5105935;28;20020;-44
2021/08/23 08:48:10;;;;;;;15.77;5.63;;;;;;;;;;5103367;28;20384;-45
2021/08/23 08:50:36;;;;;;;17.83;5.72;;;;;;;;;;5111535;28;20487;-44
2021/08/23 08:53:06;;;;;;;42.22;7.97;;;;;;;;;;5088066;28;20020;-45
2021/08/23 08:55:35;;;;;;;8.13;5.00;;;;;;;;;;5102249;28;20038;-44
2021/08/23 08:58:05;;;;;;;12.05;5.30;;;;;;;;;;5114138;28;20035;-41
2021/08/23 09:00:31;;;;;;;31.27;6.85;;;;;;;;;;5101773;28;20101;-43
2021/08/23 09:03:00;;;;;;;10.50;4.93;;;;;;;;;;5093823;28;20385;-43
2021/08/23 09:05:34;;;;;;;42.88;8.27;;;;;;;;;;5093947;28;20016;-42
2021/08/23 09:08:00;;;;;;;;;;;;;;;;;;5093753;28;20043;-44
2021/08/23 09:10:26;;;;;;;21.90;6.32;;;;;;;;;;5093422;28;20317;-41
2021/08/23 09:13:18;;;;;;;18.23;5.75;;;;;;;;;;5093712;28;20024;-43
2021/08/23 09:15:52;;;;;;;23.65;5.35;;;;;;;;;;5088842;28;20431;-44
2021/08/23 09:18:23;;;;;;;12.68;5.13;;;;;;;;;;5093590;28;20044;-42
2021/08/23 09:20:59;;;;;;;12.75;5.30;;;;;;;;;;5093163;28;20040;-44
2021/08/23 09:23:34;;;;;;;10.77;4.47;;;;;;;;;;5110030;28;20023;-45
2021/08/23 09:26:07;;;;;;;10.93;5.07;;;;;;;;;;5095000;28;20039;-44
2021/08/23 09:28:33;;;;;;;22.02;6.38;;;;;;;;;;5113541;28;20015;-44
2021/08/23 09:30:59;;;;;;;21.05;5.57;;;;;;;;;;5113468;28;20023;-41
2021/08/23 09:33:25;;;;;;;14.38;4.40;;;;;;;;;;5113594;28;20027;-43
2021/08/23 09:35:54;;;;;;;8.55;3.65;;;;;;;;;;5113895;28;20034;-43
2021/08/23 09:38:20;;;;;;;5.72;3.53;;;;;;;;;;5087475;28;20069;-42
2021/08/23 09:40:48;;;;;;;8.05;3.28;;;;;;;;;;5093379;28;20358;-42
2021/08/23 09:43:15;;;;;;;4.78;3.20;;;;;;;;;;5091375;28;20090;-42
2021/08/23 09:45:49;;;;;;;5.15;3.30;;;;;;;;;;5085394;28;20024;-42
2021/08/23 09:48:15;;;;;;;3.33;2.90;;;;;;;;;;5082180;28;20040;-42
2021/08/23 09:50:45;;;;;;;2.85;2.58;;;;;;;;;;5084610;28;20031;-43
2021/08/23 09:53:13;;;;;;;2.33;2.10;;;;;;;;;;5097402;28;20058;-42
2021/08/23 09:55:43;;;;;;;2.25;1.85;;;;;;;;;;5096670;28;20028;-42
2021/08/23 09:58:10;;;;;;;6.13;2.00;;;;;;;;;;5095400;28;20030;-43
2021/08/23 10:00:40;;;;;;;4.68;1.80;;;;;;;;;;5094320;28;20065;-42
2021/08/23 10:03:13;;;;;;;4.13;2.22;;;;;;;;;;5100529;28;20418;-42
2021/08/23 10:05:40;;;;;;;4.78;2.60;;;;;;;;;;5092720;28;20023;-49
2021/08/23 10:08:06;;;;;;;3.08;2.13;;;;;;;;;;5085995;28;20064;-43
2021/08/23 10:10:32;;;;;;;5.38;2.30;;;;;;;;;;5092743;28;20028;-42
2021/08/23 10:12:59;;;;;;;5.53;2.35;;;;;;;;;;5080354;28;20028;-42
2021/08/23 10:15:25;;;;;;;2.20;2.00;;;;;;;;;;5079921;28;20025;-43
2021/08/23 10:17:52;;;;;;;2.90;2.40;;;;;;;;;;5089854;28;20043;-42
2021/08/23 10:20:18;;;;;;;3.38;1.90;;;;;;;;;;5098336;28;20021;-44
2021/08/23 10:22:44;;;;;;;3.50;1.80;;;;;;;;;;5079617;28;20035;-43
2021/08/23 10:25:11;;;;;;;1.80;1.70;;;;;;;;;;5098864;28;20797;-43
2021/08/23 10:27:41;;;;;;;2.20;2.00;;;;;;;;;;5095954;28;20020;-41
2021/08/23 10:30:08;;;;;;;1.70;1.60;;;;;;;;;;5078630;28;20033;-42
2021/08/23 10:32:42;;;;;;;2.80;1.63;;;;;;;;;;5096810;28;20083;-41
2021/08/23 10:35:18;;;;;;;3.53;1.92;;;;;;;;;;5094046;28;20036;-43
2021/08/23 10:37:44;;;;;;;3.22;1.60;;;;;;;;;;5092513;28;20036;-43
2021/08/23 10:40:11;;;;;;;1.70;1.60;;;;;;;;;;5085967;28;20027;-44
2021/08/23 10:42:40;;;;;;;5.35;1.70;;;;;;;;;;5072872;28;20158;-42
2021/08/23 10:45:08;;;;;;;3.88;1.60;;;;;;;;;;5080256;28;20447;-42
2021/08/23 10:47:34;;;;;;;3.08;2.03;;;;;;;;;;5080124;28;20051;-42
2021/08/23 10:50:00;;;;;;;1.63;1.52;;;;;;;;;;5080100;28;20028;-43
2021/08/23 10:52:30;;;;;;;4.22;2.10;;;;;;;;;;5085952;28;20039;-44
2021/08/23 10:54:56;;;;;;;1.73;1.60;;;;;;;;;;5091447;28;20043;-44
2021/08/23 10:57:23;;;;;;;2.45;1.73;;;;;;;;;;5089121;28;20777;-43
2021/08/23 10:59:49;;;;;;;2.58;2.10;;;;;;;;;;5081096;28;20024;-44
2021/08/23 11:02:29;;;;;;;4.22;1.95;;;;;;;;;;5083148;28;20020;-43
2021/08/23 11:04:57;;;;;;;2.67;1.90;;;;;;;;;;5077975;28;20017;-43
2021/08/23 11:07:27;;;;;;;2.03;1.83;;;;;;;;;;5080071;28;20488;-43
2021/08/23 11:10:04;;;;;;;1.90;1.80;;;;;;;;;;5086325;28;20032;-45
2021/08/23 11:12:40;;;;;;;5.45;1.75;;;;;;;;;;5082928;28;20024;-45
2021/08/23 11:15:14;;;;;;;2.10;1.90;;;;;;;;;;5069403;28;20024;-43
2021/08/23 11:17:43;;;;;;;1.77;1.65;;;;;;;;;;5079588;28;20395;-42
2021/08/23 11:20:09;;;;;;;2.13;1.83;;;;;;;;;;5091344;28;20033;-44
2021/08/23 11:22:36;;;;;;;7.63;2.00;;;;;;;;;;5091702;28;20374;-44
2021/08/23 11:25:02;;;;;;;4.28;1.70;;;;;;;;;;5091569;28;20024;-45
2021/08/23 11:27:28;;;;;;;2.97;1.88;;;;;;;;;;5091763;28;20189;-46
2021/08/23 11:29:55;;;;;;;3.60;2.45;;;;;;;;;;5091435;28;20562;-45
2021/08/23 11:32:28;;;;;;;1.98;1.77;;;;;;;;;;5091515;28;20024;-45
2021/08/23 11:34:56;;;;;;;2.10;1.67;;;;;;;;;;5091411;28;20020;-45
2021/08/23 11:37:24;;;;;;;2.20;2.00;;;;;;;;;;5091695;28;20532;-44
2021/08/23 11:40:01;;;;;;;1.98;1.60;;;;;;;;;;5091487;28;20024;-47
2021/08/23 11:42:27;;;;;;;2.28;1.65;;;;;;;;;;5091411;28;20017;-44
2021/08/23 11:44:54;;;;;;;1.70;1.60;;;;;;;;;;5090883;28;20020;-47
2021/08/23 11:47:28;;;;;;;1.77;1.65;;;;;;;;;;5091665;28;20012;-45
2021/08/23 11:49:54;;;;;;;1.88;1.40;;;;;;;;;;5091413;28;20032;-45
2021/08/23 11:52:20;;;;;;;1.40;1.30;;;;;;;;;;5091533;28;20028;-45
2021/08/23 11:54:47;;;;;;;1.70;1.60;;;;;;;;;;5091519;28;20032;-44
2021/08/23 11:57:13;;;;;;;1.60;1.50;;;;;;;;;;5091473;28;20852;-44
2021/08/23 11:59:39;;;;;;;2.33;1.48;;;;;;;;;;5091333;28;20050;-45
2021/08/23 12:02:09;;;;;;;2.08;1.90;;;;;;;;;;5091247;28;20016;-44
2021/08/23 12:04:35;;;;;;;1.60;1.50;;;;;;;;;;5091454;28;20028;-45
2021/08/23 12:07:01;;;;;;;2.55;1.65;;;;;;;;;;5091440;28;20036;-44
2021/08/23 12:09:27;;;;;;;2.00;1.90;;;;;;;;;;5091236;28;20020;-45
2021/08/23 12:11:53;;;;;;;2.33;1.65;;;;;;;;;;5091183;28;20017;-44
2021/08/23 12:14:20;;;;;;;1.70;1.60;;;;;;;;;;5091039;28;20016;-44
2021/08/23 12:16:47;;;;;;;1.65;1.55;;;;;;;;;;5090985;28;20043;-44
2021/08/23 12:19:14;;;;;;;2.58;1.63;;;;;;;;;;5089798;28;20020;-44
2021/08/23 12:21:41;;;;;;;1.58;1.45;;;;;;;;;;5090801;28;20056;-46
2021/08/23 12:24:16;;;;;;;1.60;1.50;;;;;;;;;;5092100;28;20099;-44
2021/08/23 12:26:43;;;;;;;1.77;1.60;;;;;;;;;;5094735;28;20023;-46
2021/08/23 12:29:19;;;;;;;1.80;1.70;;;;;;;;;;5094712;28;20481;-45
2021/08/23 12:31:48;;;;;;;1.92;1.70;;;;;;;;;;5094614;28;20069;-44
2021/08/23 12:34:14;;;;;;;1.92;1.73;;;;;;;;;;5094678;28;20437;-44
2021/08/23 12:36:41;;;;;;;2.33;1.52;;;;;;;;;;5094594;28;20029;-44
2021/08/23 12:39:07;;;;;;;2.10;1.48;;;;;;;;;;5094654;28;20057;-45
2021/08/23 12:41:34;;;;;;;1.75;1.65;;;;;;;;;;5094602;28;20024;-44
2021/08/23 12:44:00;;;;;;;2.85;1.73;;;;;;;;;;5093230;28;20021;-44
2021/08/23 12:46:26;;;;;;;2.45;1.90;;;;;;;;;;5094594;28;20020;-47
2021/08/23 12:48:52;;;;;;;1.70;1.60;;;;;;;;;;5094440;28;20052;-44
2021/08/23 12:51:19;;;;;;;3.45;1.70;;;;;;;;;;5097752;28;20379;-43
2021/08/23 12:53:45;;;;;;;2.10;1.67;;;;;;;;;;5106542;28;20028;-44
2021/08/23 12:56:12;;;;;;;1.70;1.60;;;;;;;;;;5085582;28;20397;-44
2021/08/23 12:58:38;;;;;;;1.80;1.70;;;;;;;;;;5108259;28;20396;-44
2021/08/23 13:01:04;;;;;;;1.83;1.73;;;;;;;;;;5104758;28;20096;-45
2021/08/23 13:03:30;;;;;;;2.25;2.00;;;;;;;;;;5100590;28;20038;-46
2021/08/23 13:05:56;;;;;;;3.47;2.08;;;;;;;;;;5098744;28;20477;-45
2021/08/23 13:08:22;;;;;;;3.00;1.98;;;;;;;;;;5108311;28;20039;-44
2021/08/23 13:10:48;;;;;;;4.78;2.20;;;;;;;;;;5102706;28;20177;-46
2021/08/23 13:13:15;;;;;;;2.55;2.13;;;;;;;;;;5086435;28;20397;-45
2021/08/23 13:15:42;;;;;;;2.85;2.08;;;;;;;;;;5101983;28;20028;-44
2021/08/23 13:18:08;;;;;;;4.18;2.58;;;;;;;;;;5107220;28;20044;-45
2021/08/23 13:20:35;;;;;;;2.17;1.98;;;;;;;;;;5112887;28;20032;-45
2021/08/23 13:23:01;;;;;;;3.65;2.05;;;;;;;;;;5090353;28;20498;-44
2021/08/23 13:25:27;;;;;;;2.20;2.00;;;;;;;;;;5107710;28;20028;-45
2021/08/23 13:27:53;;;;;;;2.00;1.90;;;;;;;;;;5104831;28;20038;-44
2021/08/23 13:30:19;;;;;;;2.75;1.95;;;;;;;;;;5102483;28;20135;-44
2021/08/23 13:32:46;;;;;;;3.70;2.05;;;;;;;;;;5098089;28;20023;-43
2021/08/23 13:35:11;;;;;;;2.22;2.13;;;;;;;;;;5111629;28;20080;-45
2021/08/23 13:37:38;;;;;;;3.20;2.00;;;;;;;;;;5092359;28;20024;-46
2021/08/23 13:40:07;;;;;;;2.08;1.80;;;;;;;;;;5101249;28;20532;-46
2021/08/23 13:42:36;;;;;;;1.90;1.80;;;;;;;;;;5101058;28;20028;-44
2021/08/23 13:45:06;;;;;;;2.05;1.95;;;;;;;;;;5110810;28;20119;-46
2021/08/23 13:47:32;;;;;;;2.05;1.95;;;;;;;;;;5102524;28;20034;-45
2021/08/23 13:49:58;;;;;;;2.42;1.80;;;;;;;;;;5113616;28;20464;-44
2021/08/23 13:52:24;;;;;;;2.95;1.90;;;;;;;;;;5111178;28;20058;-46
2021/08/23 13:54:50;;;;;;;2.47;2.28;;;;;;;;;;5093329;28;20032;-47
2021/08/23 13:57:16;;;;;;;2.30;2.10;;;;;;;;;;5093917;28;20843;-44
2021/08/23 13:59:42;;;;;;;2.85;2.10;;;;;;;;;;5112303;28;20085;-46
2021/08/23 14:02:08;;;;;;;2.22;1.85;;;;;;;;;;5092982;28;20056;-46
2021/08/23 14:04:37;;;;;;;1.70;1.60;;;;;;;;;;5106047;28;20016;-44
2021/08/23 14:07:03;;;;;;;2.05;1.95;;;;;;;;;;5084431;28;20495;-46
2021/08/23 14:09:29;;;;;;;1.95;1.75;;;;;;;;;;5093446;28;20054;-46
2021/08/23 14:11:55;;;;;;;2.65;2.30;;;;;;;;;;5099702;28;20060;-46
2021/08/23 14:14:21;;;;;;;2.97;2.25;;;;;;;;;;5081039;28;20431;-44
2021/08/23 14:16:47;;;;;;;2.63;2.15;;;;;;;;;;5079788;28;20147;-42
2021/08/23 14:19:14;;;;;;;2.20;2.00;;;;;;;;;;5104417;28;20081;-43
2021/08/23 14:21:40;;;;;;;4.13;1.73;;;;;;;;;;5106725;28;20028;-46
2021/08/23 14:24:06;;;;;;;1.55;1.45;;;;;;;;;;5096180;27;20072;-44
2021/08/23 14:26:32;;;;;;;2.20;1.90;;;;;;;;;;5102469;28;20037;-46
2021/08/23 14:28:59;;;;;;;2.40;2.05;;;;;;;;;;5101073;28;20027;-46